createdAt,value
2023-09-06T00:00:47.115Z,17.80
2023-09-06T00:03:15.363Z,17.80
2023-09-06T00:05:42.923Z,17.80
2023-09-06T00:08:11.129Z,17.80
2023-09-06T00:10:41.228Z,17.70
2023-09-06T00:13:08.825Z,17.70
2023-09-06T00:15:36.296Z,17.60
2023-09-06T00:18:06.948Z,17.60
2023-09-06T00:20:35.629Z,17.60
2023-09-06T00:23:05.295Z,17.50
2023-09-06T00:25:33.134Z,17.50
2023-09-06T00:28:02.155Z,17.50
2023-09-06T00:30:29.418Z,17.50
2023-09-06T00:32:56.243Z,17.50
2023-09-06T00:35:25.397Z,17.50
2023-09-06T00:37:53.515Z,17.50
2023-09-06T00:40:22.542Z,17.50
2023-09-06T00:42:53.878Z,17.50
2023-09-06T00:45:24.385Z,17.50
2023-09-06T00:47:52.530Z,17.50
2023-09-06T00:50:19.722Z,17.40
2023-09-06T00:52:47.727Z,17.30
2023-09-06T00:55:14.657Z,17.30
2023-09-06T00:57:42.033Z,17.30
2023-09-06T01:00:20.536Z,17.20
2023-09-06T01:02:48.646Z,17.20
2023-09-06T01:05:20.681Z,17.20
2023-09-06T01:07:50.774Z,17.20
2023-09-06T01:10:17.456Z,17.10
2023-09-06T01:12:44.278Z,17.20
2023-09-06T01:15:12.564Z,17.10
2023-09-06T01:17:42.921Z,17.10
2023-09-06T01:20:38.230Z,17.10
2023-09-06T01:23:26.480Z,17.10
2023-09-06T01:25:53.668Z,17.00
2023-09-06T01:28:20.518Z,17.00
2023-09-06T01:30:47.956Z,17.00
2023-09-06T01:33:17.353Z,17.00
2023-09-06T01:35:44.122Z,16.90
2023-09-06T01:38:12.880Z,17.00
2023-09-06T01:40:39.580Z,16.90
2023-09-06T01:43:06.344Z,16.90
2023-09-06T01:45:33.212Z,16.90
2023-09-06T01:48:00.059Z,16.90
2023-09-06T01:50:26.795Z,16.90
2023-09-06T01:52:53.461Z,16.90
2023-09-06T01:55:20.150Z,16.80
2023-09-06T01:57:46.950Z,16.70
2023-09-06T02:00:20.690Z,16.70
2023-09-06T02:05:14.660Z,16.60
2023-09-06T02:07:41.526Z,16.60
2023-09-06T02:10:09.168Z,16.60
2023-09-06T02:12:36.211Z,16.60
2023-09-06T02:15:15.050Z,16.60
2023-09-06T02:17:45.455Z,16.50
2023-09-06T02:20:22.161Z,16.50
2023-09-06T02:22:56.751Z,16.40
2023-09-06T02:25:31.564Z,16.50
2023-09-06T02:28:05.958Z,16.40
2023-09-06T02:30:34.061Z,16.40
2023-09-06T02:33:01.694Z,16.40
2023-09-06T02:35:28.667Z,16.40
2023-09-06T02:37:55.356Z,16.40
2023-09-06T02:40:22.575Z,16.40
2023-09-06T02:42:50.394Z,16.30
2023-09-06T02:45:17.213Z,16.30
2023-09-06T02:47:52.099Z,16.30
2023-09-06T02:50:24.658Z,16.30
2023-09-06T02:52:54.746Z,16.20
2023-09-06T02:55:22.612Z,16.10
2023-09-06T02:57:50.599Z,16.10
2023-09-06T03:00:27.383Z,16.10
2023-09-06T03:03:07.841Z,16.10
2023-09-06T03:05:45.271Z,16.10
2023-09-06T03:08:13.727Z,16.10
2023-09-06T03:10:47.233Z,16.10
2023-09-06T03:13:16.344Z,16.10
2023-09-06T03:15:44.812Z,16.00
2023-09-06T03:18:11.911Z,16.00
2023-09-06T03:20:45.107Z,16.00
2023-09-06T03:23:20.765Z,16.00
2023-09-06T03:25:48.653Z,16.00
2023-09-06T03:28:16.312Z,16.00
2023-09-06T03:30:43.632Z,15.90
2023-09-06T03:33:10.677Z,15.90
2023-09-06T03:35:37.935Z,15.90
2023-09-06T03:38:09.838Z,15.90
2023-09-06T03:40:37.472Z,15.80
2023-09-06T03:43:18.135Z,15.80
2023-09-06T03:45:46.345Z,15.90
2023-09-06T03:48:18.862Z,15.80
2023-09-06T03:50:47.301Z,15.80
2023-09-06T03:53:15.867Z,15.80
2023-09-06T03:55:43.083Z,15.90
2023-09-06T03:58:11.899Z,15.90
2023-09-06T04:00:43.179Z,15.90
2023-09-06T04:03:13.729Z,15.80
2023-09-06T04:05:42.265Z,15.80
2023-09-06T04:08:10.360Z,15.80
2023-09-06T04:10:37.830Z,15.70
2023-09-06T04:13:08.701Z,15.70
2023-09-06T04:15:36.389Z,15.70
2023-09-06T04:18:05.070Z,15.70
2023-09-06T04:20:37.440Z,15.60
2023-09-06T04:23:06.613Z,15.60
2023-09-06T04:25:35.175Z,15.60
2023-09-06T04:28:02.710Z,15.50
2023-09-06T04:30:30.301Z,15.50
2023-09-06T04:32:59.788Z,15.50
2023-09-06T04:35:39.126Z,15.50
2023-09-06T04:38:06.401Z,15.50
2023-09-06T04:40:33.194Z,15.50
2023-09-06T04:43:00.244Z,15.40
2023-09-06T04:45:27.019Z,15.40
2023-09-06T04:47:53.897Z,15.40
2023-09-06T04:50:20.682Z,15.50
2023-09-06T04:52:49.331Z,15.50
2023-09-06T04:55:16.401Z,15.40
2023-09-06T04:57:43.535Z,15.40
2023-09-06T05:00:32.121Z,15.40
2023-09-06T05:02:59.527Z,15.40
2023-09-06T05:05:27.660Z,15.40
2023-09-06T05:07:56.127Z,15.40
2023-09-06T05:10:22.914Z,15.40
2023-09-06T05:12:49.648Z,15.40
2023-09-06T05:15:16.396Z,15.40
2023-09-06T05:17:43.188Z,15.40
2023-09-06T05:20:30.109Z,15.40
2023-09-06T05:22:57.957Z,15.50
2023-09-06T05:25:25.628Z,15.40
2023-09-06T05:27:56.973Z,15.40
2023-09-06T05:30:23.854Z,15.50
2023-09-06T05:32:51.040Z,15.50
2023-09-06T05:35:17.946Z,15.50
2023-09-06T05:37:44.654Z,15.50
2023-09-06T05:40:14.412Z,15.50
2023-09-06T05:42:42.152Z,15.50
2023-09-06T05:45:13.329Z,15.50
2023-09-06T05:47:40.175Z,15.50
2023-09-06T05:50:07.779Z,15.50
2023-09-06T05:52:34.736Z,15.50
2023-09-06T05:55:03.052Z,15.60
2023-09-06T05:57:30.885Z,15.60
2023-09-06T05:59:57.579Z,15.70
2023-09-06T06:02:25.674Z,15.60
2023-09-06T06:04:53.318Z,15.70
2023-09-06T06:07:21.253Z,15.70
2023-09-06T06:09:49.159Z,15.70
2023-09-06T06:12:16.233Z,15.80
2023-09-06T06:14:42.986Z,15.90
2023-09-06T06:17:13.724Z,16.00
2023-09-06T06:19:40.463Z,16.00
2023-09-06T06:22:07.223Z,16.00
2023-09-06T06:24:37.258Z,16.10
2023-09-06T06:27:05.375Z,16.10
2023-09-06T06:29:32.346Z,16.20
2023-09-06T06:31:59.211Z,16.20
2023-09-06T06:34:25.970Z,16.30
2023-09-06T06:36:52.737Z,16.40
2023-09-06T06:39:19.449Z,16.50
2023-09-06T06:41:46.137Z,16.50
2023-09-06T06:44:12.994Z,16.60
2023-09-06T06:46:40.456Z,16.70
2023-09-06T06:49:08.618Z,16.70
2023-09-06T06:51:39.488Z,16.80
2023-09-06T06:54:11.569Z,16.90
2023-09-06T06:56:38.801Z,17.00
2023-09-06T06:59:05.827Z,17.10
2023-09-06T07:01:32.907Z,17.10
2023-09-06T07:03:59.832Z,17.20
2023-09-06T07:06:27.521Z,17.30
2023-09-06T07:08:55.808Z,17.40
2023-09-06T07:11:22.649Z,17.50
2023-09-06T07:13:50.995Z,17.60
2023-09-06T07:16:20.622Z,17.70
2023-09-06T07:18:48.218Z,17.80
2023-09-06T07:21:16.248Z,17.90
2023-09-06T07:23:43.846Z,18.00
2023-09-06T07:26:11.349Z,18.10
2023-09-06T07:28:39.880Z,18.30
2023-09-06T07:31:07.511Z,18.30
2023-09-06T07:33:34.544Z,18.40
2023-09-06T07:36:01.410Z,18.60
2023-09-06T07:38:29.069Z,18.70
2023-09-06T07:41:04.544Z,18.80
2023-09-06T07:43:31.793Z,19.00
2023-09-06T07:45:59.662Z,19.00
2023-09-06T07:48:32.258Z,19.20
2023-09-06T07:51:00.561Z,19.40
2023-09-06T07:53:28.016Z,19.50
2023-09-06T07:55:56.414Z,19.70
2023-09-06T07:58:23.919Z,19.80
2023-09-06T08:00:59.278Z,19.90
2023-09-06T08:03:29.626Z,20.20
2023-09-06T08:05:57.688Z,20.90
2023-09-06T08:08:24.502Z,21.30
2023-09-06T08:10:51.292Z,21.30
2023-09-06T08:13:18.014Z,21.30
2023-09-06T08:15:45.299Z,21.20
2023-09-06T08:18:12.098Z,21.30
2023-09-06T08:20:39.171Z,21.40
2023-09-06T08:23:05.861Z,21.40
2023-09-06T08:25:34.972Z,21.50
2023-09-06T08:28:01.656Z,21.60
2023-09-06T08:30:28.772Z,21.70
2023-09-06T08:32:57.074Z,21.80
2023-09-06T08:35:24.781Z,21.90
2023-09-06T08:37:51.669Z,22.10
2023-09-06T08:40:19.899Z,22.20
2023-09-06T08:42:46.818Z,22.30
2023-09-06T08:45:14.237Z,22.30
2023-09-06T08:47:42.380Z,22.40
2023-09-06T08:50:13.195Z,22.60
2023-09-06T08:52:41.903Z,22.70
2023-09-06T08:55:11.227Z,22.70
2023-09-06T08:57:39.250Z,22.90
2023-09-06T09:00:10.322Z,23.10
2023-09-06T09:02:41.770Z,23.20
2023-09-06T09:05:20.599Z,23.40
2023-09-06T09:08:02.156Z,23.50
2023-09-06T09:10:33.948Z,23.80
2023-09-06T09:13:01.656Z,23.90
2023-09-06T09:15:32.213Z,24.10
2023-09-06T09:18:01.940Z,24.30
2023-09-06T09:20:32.413Z,24.30
2023-09-06T09:23:03.461Z,24.50
2023-09-06T09:25:30.917Z,24.60
2023-09-06T09:27:58.953Z,24.70
2023-09-06T09:30:31.373Z,24.70
2023-09-06T09:33:02.493Z,24.80
2023-09-06T09:35:31.187Z,25.00
2023-09-06T09:38:00.150Z,25.20
2023-09-06T09:40:50.141Z,25.40
2023-09-06T09:43:20.255Z,25.50
2023-09-06T09:45:48.021Z,25.50
2023-09-06T09:48:17.428Z,25.70
2023-09-06T09:50:45.576Z,25.80
2023-09-06T09:55:49.027Z,25.90
2023-09-06T09:58:20.749Z,26.20
2023-09-06T10:00:52.204Z,26.30
2023-09-06T10:03:20.018Z,26.50
2023-09-06T10:05:48.802Z,26.70
2023-09-06T10:08:19.340Z,26.80
2023-09-06T10:10:46.482Z,26.90
2023-09-06T10:13:15.914Z,27.20
2023-09-06T10:15:44.416Z,27.20
2023-09-06T10:18:12.247Z,27.30
2023-09-06T10:20:40.412Z,27.30
2023-09-06T10:23:08.568Z,27.30
2023-09-06T10:25:41.625Z,27.40
2023-09-06T10:28:09.102Z,27.30
2023-09-06T10:30:46.732Z,27.50
2023-09-06T10:33:34.875Z,27.60
2023-09-06T10:36:11.344Z,27.60
2023-09-06T10:38:56.801Z,27.80
2023-09-06T10:41:24.824Z,27.80
2023-09-06T10:44:04.356Z,27.70
2023-09-06T10:46:32.132Z,27.70
2023-09-06T10:49:21.837Z,27.80
2023-09-06T10:52:02.768Z,28.00
2023-09-06T10:54:38.940Z,28.70
2023-09-06T10:57:11.300Z,29.50
2023-09-06T10:59:44.589Z,30.00
2023-09-06T11:02:28.800Z,30.50
2023-09-06T11:05:06.648Z,31.00
2023-09-06T11:10:15.105Z,33.10
2023-09-06T11:12:42.086Z,33.20
2023-09-06T11:15:11.096Z,32.70
2023-09-06T11:17:37.929Z,32.60
2023-09-06T11:20:15.824Z,33.40
2023-09-06T11:22:53.357Z,33.80
2023-09-06T11:25:22.202Z,33.60
2023-09-06T11:27:50.937Z,32.70
2023-09-06T11:30:23.124Z,31.70
2023-09-06T11:32:51.528Z,31.40
2023-09-06T11:35:28.481Z,31.10
2023-09-06T11:37:57.221Z,30.70
2023-09-06T11:40:29.044Z,30.50
2023-09-06T11:42:59.131Z,30.30
2023-09-06T11:45:28.080Z,30.10
2023-09-06T11:47:56.443Z,29.70
2023-09-06T11:50:25.150Z,29.50
2023-09-06T11:52:58.646Z,29.50
2023-09-06T11:55:27.890Z,29.20
2023-09-06T11:57:58.266Z,29.20
2023-09-06T12:00:42.966Z,29.20
2023-09-06T12:03:10.620Z,29.10
2023-09-06T12:05:48.237Z,29.00
2023-09-06T12:08:23.112Z,28.90
2023-09-06T12:10:55.887Z,29.00
2023-09-06T12:13:33.146Z,28.90
2023-09-06T12:16:00.627Z,28.80
2023-09-06T12:18:29.971Z,28.80
2023-09-06T12:20:58.367Z,28.80
2023-09-06T12:23:35.013Z,28.80
2023-09-06T12:26:04.458Z,28.70
2023-09-06T12:28:32.599Z,28.70
2023-09-06T12:31:09.893Z,28.70
2023-09-06T12:33:45.771Z,28.60
2023-09-06T12:36:13.754Z,28.60
2023-09-06T12:38:40.621Z,28.60
2023-09-06T12:41:07.832Z,28.60
2023-09-06T12:43:36.724Z,28.50
2023-09-06T12:46:07.543Z,28.50
2023-09-06T12:48:35.732Z,28.50
2023-09-06T12:51:04.321Z,28.40
2023-09-06T12:53:31.388Z,28.40
2023-09-06T12:55:58.120Z,28.30
2023-09-06T12:58:24.904Z,28.30
2023-09-06T13:00:51.826Z,28.20
2023-09-06T13:03:18.667Z,28.20
2023-09-06T13:05:47.389Z,28.20
2023-09-06T13:08:14.349Z,28.20
2023-09-06T13:10:41.161Z,28.20
2023-09-06T13:13:07.966Z,28.10
2023-09-06T13:15:34.835Z,28.10
2023-09-06T13:18:01.808Z,28.10
2023-09-06T13:20:28.745Z,28.00
2023-09-06T13:22:55.585Z,28.00
2023-09-06T13:25:22.302Z,27.90
2023-09-06T13:27:49.120Z,27.80
2023-09-06T13:30:15.971Z,27.80
2023-09-06T13:32:43.070Z,27.80
2023-09-06T13:35:09.942Z,27.80
2023-09-06T13:37:36.730Z,27.80
2023-09-06T13:40:05.468Z,27.70
2023-09-06T13:42:32.352Z,27.70
2023-09-06T13:44:59.190Z,27.60
2023-09-06T13:47:25.961Z,27.60
2023-09-06T13:49:53.010Z,27.60
2023-09-06T13:52:19.835Z,27.60
2023-09-06T13:54:46.552Z,27.60
2023-09-06T13:57:13.256Z,27.50
2023-09-06T13:59:41.427Z,27.40
2023-09-06T14:02:08.686Z,27.40
2023-09-06T14:04:36.141Z,27.30
2023-09-06T14:07:03.145Z,27.30
2023-09-06T14:09:29.943Z,27.20
2023-09-06T14:11:56.963Z,27.20
2023-09-06T14:14:24.659Z,27.10
2023-09-06T14:16:52.040Z,27.10
2023-09-06T14:19:18.844Z,27.00
2023-09-06T14:21:48.518Z,27.00
2023-09-06T14:24:16.375Z,27.00
2023-09-06T14:26:46.245Z,27.00
2023-09-06T14:29:13.910Z,27.10
2023-09-06T14:31:41.577Z,27.10
2023-09-06T14:34:08.709Z,27.10
2023-09-06T14:36:35.937Z,27.10
2023-09-06T14:39:05.775Z,27.10
2023-09-06T14:41:34.967Z,27.00
2023-09-06T14:44:02.263Z,27.00
2023-09-06T14:46:29.194Z,27.00
2023-09-06T14:48:56.304Z,27.00
2023-09-06T14:51:25.233Z,27.00
2023-09-06T14:53:52.024Z,27.00
2023-09-06T14:56:19.421Z,27.00
2023-09-06T14:58:46.197Z,27.10
2023-09-06T15:01:13.108Z,27.10
2023-09-06T15:03:40.195Z,27.10
2023-09-06T15:06:08.743Z,27.20
2023-09-06T15:08:36.012Z,27.30
2023-09-06T15:11:02.980Z,27.40
2023-09-06T15:13:29.926Z,27.40
2023-09-06T15:15:56.856Z,27.40
2023-09-06T15:18:24.543Z,27.40
2023-09-06T15:20:52.130Z,27.40
2023-09-06T15:23:19.371Z,27.40
2023-09-06T15:25:46.447Z,27.40
2023-09-06T15:28:13.404Z,27.30
2023-09-06T15:30:40.559Z,27.30
2023-09-06T15:33:07.521Z,27.20
2023-09-06T15:35:34.424Z,27.20
2023-09-06T15:38:12.849Z,27.10
2023-09-06T15:40:39.977Z,27.00
2023-09-06T15:43:06.845Z,27.00
2023-09-06T15:45:34.257Z,26.90
2023-09-06T15:48:01.239Z,26.90
2023-09-06T15:50:30.675Z,26.90
2023-09-06T15:52:57.724Z,26.90
2023-09-06T15:55:24.437Z,26.80
2023-09-06T15:57:51.950Z,26.80
2023-09-06T16:00:31.700Z,26.80
2023-09-06T16:03:00.139Z,26.80
2023-09-06T16:05:27.375Z,26.80
2023-09-06T16:07:56.738Z,26.90
2023-09-06T16:10:26.833Z,26.90
2023-09-06T16:12:53.864Z,27.00
2023-09-06T16:15:20.708Z,27.00
2023-09-06T16:17:47.510Z,26.90
2023-09-06T16:20:14.383Z,26.80
2023-09-06T16:22:41.532Z,26.80
2023-09-06T16:25:09.482Z,26.70
2023-09-06T16:27:36.205Z,26.70
2023-09-06T16:30:07.266Z,26.70
2023-09-06T16:32:34.651Z,26.70
2023-09-06T16:35:08.347Z,26.70
2023-09-06T16:37:36.264Z,26.60
2023-09-06T16:40:03.057Z,26.50
2023-09-06T16:42:29.874Z,26.50
2023-09-06T16:44:56.638Z,26.40
2023-09-06T16:47:24.378Z,26.30
2023-09-06T16:49:52.597Z,26.30
2023-09-06T16:52:19.414Z,26.20
2023-09-06T16:54:46.250Z,26.20
2023-09-06T16:57:12.970Z,26.10
2023-09-06T16:59:39.668Z,26.10
2023-09-06T17:02:07.046Z,26.00
2023-09-06T17:04:33.834Z,26.00
2023-09-06T17:07:00.559Z,26.00
2023-09-06T17:09:29.060Z,26.00
2023-09-06T17:11:55.956Z,25.90
2023-09-06T17:14:22.700Z,25.90
2023-09-06T17:16:49.517Z,25.90
2023-09-06T17:19:16.341Z,25.90
2023-09-06T17:21:43.075Z,25.90
2023-09-06T17:24:10.309Z,25.80
2023-09-06T17:26:38.045Z,25.90
2023-09-06T17:29:09.831Z,25.80
2023-09-06T17:31:36.941Z,25.80
2023-09-06T17:34:04.014Z,25.70
2023-09-06T17:36:30.764Z,25.70
2023-09-06T17:38:57.725Z,25.50
2023-09-06T17:41:24.857Z,25.40
2023-09-06T17:43:52.096Z,25.40
2023-09-06T17:46:25.512Z,25.30
2023-09-06T17:48:54.064Z,25.10
2023-09-06T17:51:21.514Z,25.10
2023-09-06T17:53:48.911Z,24.90
2023-09-06T17:56:20.923Z,24.80
2023-09-06T17:58:50.525Z,24.80
2023-09-06T18:01:20.197Z,24.60
2023-09-06T18:03:52.332Z,24.50
2023-09-06T18:06:26.958Z,24.40
2023-09-06T18:09:05.581Z,24.40
2023-09-06T18:11:32.390Z,24.20
2023-09-06T18:13:59.316Z,24.20
2023-09-06T18:16:26.092Z,24.10
2023-09-06T18:18:52.910Z,24.00
2023-09-06T18:21:19.717Z,23.90
2023-09-06T18:23:48.852Z,23.80
2023-09-06T18:26:15.655Z,23.70
2023-09-06T18:28:42.662Z,23.70
2023-09-06T18:31:09.981Z,23.60
2023-09-06T18:33:37.883Z,23.50
2023-09-06T18:36:09.589Z,23.40
2023-09-06T18:38:38.008Z,23.30
2023-09-06T18:41:09.979Z,23.30
2023-09-06T18:43:40.662Z,23.20
2023-09-06T18:46:08.442Z,23.10
2023-09-06T18:48:36.555Z,23.00
2023-09-06T18:51:07.823Z,23.00
2023-09-06T18:53:35.112Z,22.90
2023-09-06T18:56:06.300Z,22.90
2023-09-06T18:58:35.747Z,22.80
2023-09-06T19:01:02.890Z,22.80
2023-09-06T19:03:29.854Z,22.80
2023-09-06T19:05:56.718Z,22.70
2023-09-06T19:08:23.555Z,22.70
2023-09-06T19:10:50.655Z,22.60
2023-09-06T19:13:19.363Z,22.50
2023-09-06T19:15:48.968Z,22.50
2023-09-06T19:18:16.944Z,22.40
2023-09-06T19:20:43.887Z,22.30
2023-09-06T19:23:18.194Z,22.20
2023-09-06T19:25:52.699Z,22.20
2023-09-06T19:28:20.494Z,22.10
2023-09-06T19:30:51.742Z,22.10
2023-09-06T19:33:18.594Z,22.00
2023-09-06T19:35:45.533Z,22.00
2023-09-06T19:38:13.010Z,21.90
2023-09-06T19:40:40.647Z,21.80
2023-09-06T19:43:07.381Z,21.80
2023-09-06T19:45:34.528Z,21.70
2023-09-06T19:48:01.354Z,21.70
2023-09-06T19:50:30.827Z,21.60
2023-09-06T19:52:58.085Z,21.60
2023-09-06T19:55:24.995Z,21.50
2023-09-06T19:57:51.801Z,21.50
2023-09-06T20:00:18.731Z,21.40
2023-09-06T20:02:45.687Z,21.40
2023-09-06T20:05:12.733Z,21.30
2023-09-06T20:07:39.594Z,21.30
2023-09-06T20:10:09.344Z,21.20
2023-09-06T20:12:36.200Z,21.20
2023-09-06T20:15:05.144Z,21.10
2023-09-06T20:17:32.131Z,21.10
2023-09-06T20:22:27.123Z,21.10
2023-09-06T20:24:54.533Z,21.00
2023-09-06T20:27:21.259Z,21.00
2023-09-06T20:29:48.291Z,21.00
2023-09-06T20:32:15.339Z,21.00
2023-09-06T20:34:43.453Z,20.90
2023-09-06T20:37:11.527Z,20.90
2023-09-06T20:39:38.302Z,20.80
2023-09-06T20:42:06.518Z,20.80
2023-09-06T20:44:33.762Z,20.70
2023-09-06T20:47:02.037Z,20.70
2023-09-06T20:49:31.673Z,20.70
2023-09-06T20:51:58.417Z,20.60
2023-09-06T20:54:25.491Z,20.60
2023-09-06T20:56:52.288Z,20.60
2023-09-06T20:59:19.104Z,20.60
2023-09-06T21:01:46.253Z,20.60
2023-09-06T21:04:13.155Z,20.50
2023-09-06T21:06:39.990Z,20.60
2023-09-06T21:09:06.661Z,20.50
2023-09-06T21:11:33.644Z,20.50
2023-09-06T21:14:00.426Z,20.40
2023-09-06T21:16:27.189Z,20.40
2023-09-06T21:18:54.111Z,20.30
2023-09-06T21:21:21.217Z,20.30
2023-09-06T21:23:48.000Z,20.30
2023-09-06T21:26:14.746Z,20.30
2023-09-06T21:28:41.449Z,20.20
2023-09-06T21:31:08.233Z,20.20
2023-09-06T21:33:35.404Z,20.20
2023-09-06T21:36:02.218Z,20.20
2023-09-06T21:38:29.407Z,20.10
2023-09-06T21:40:57.747Z,20.10
2023-09-06T21:43:24.866Z,20.00
2023-09-06T21:45:51.670Z,20.00
2023-09-06T21:48:18.869Z,20.00
2023-09-06T21:50:50.203Z,20.00
2023-09-06T21:53:17.072Z,20.00
2023-09-06T21:55:43.800Z,20.00
2023-09-06T21:58:11.647Z,19.90
2023-09-06T22:00:40.080Z,19.90
2023-09-06T22:03:07.200Z,19.90
2023-09-06T22:05:34.287Z,19.90
2023-09-06T22:08:01.001Z,19.90
2023-09-06T22:10:27.816Z,19.80
2023-09-06T22:12:54.720Z,19.80
2023-09-06T22:15:21.513Z,19.90
2023-09-06T22:17:48.274Z,19.80
2023-09-06T22:20:19.131Z,19.80
2023-09-06T22:22:46.380Z,19.80
2023-09-06T22:25:14.086Z,19.70
2023-09-06T22:27:40.938Z,19.70
2023-09-06T22:30:08.452Z,19.70
2023-09-06T22:32:35.213Z,19.80
2023-09-06T22:35:01.936Z,19.80
2023-09-06T22:37:29.180Z,19.70
2023-09-06T22:39:55.961Z,19.70
2023-09-06T22:42:23.332Z,19.60
2023-09-06T22:44:50.868Z,19.60
2023-09-06T22:47:17.747Z,19.60
2023-09-06T22:49:44.635Z,19.60
2023-09-06T22:52:11.523Z,19.50
2023-09-06T22:54:40.390Z,19.50
2023-09-06T22:57:09.621Z,19.40
2023-09-06T22:59:37.065Z,19.40
2023-09-06T23:02:04.425Z,19.40
2023-09-06T23:04:34.438Z,19.40
2023-09-06T23:07:02.041Z,19.40
2023-09-06T23:09:28.839Z,19.30
2023-09-06T23:11:57.107Z,19.30
2023-09-06T23:14:25.032Z,19.30
2023-09-06T23:16:52.719Z,19.40
2023-09-06T23:19:33.443Z,19.30
2023-09-06T23:22:01.619Z,19.30
2023-09-06T23:24:30.132Z,19.30
2023-09-06T23:27:00.556Z,19.30
2023-09-06T23:29:35.960Z,19.20
2023-09-06T23:32:06.222Z,19.20
2023-09-06T23:34:35.377Z,19.20
2023-09-06T23:37:05.430Z,19.20
2023-09-06T23:39:34.465Z,19.10
2023-09-06T23:42:10.873Z,19.10
2023-09-06T23:44:42.226Z,19.10
2023-09-06T23:47:09.417Z,19.10
2023-09-06T23:49:37.391Z,19.10
2023-09-06T23:52:04.701Z,19.10
2023-09-06T23:54:44.709Z,19.00
2023-09-06T23:57:15.778Z,19.00
2023-09-06T23:59:42.513Z,19.00
